createdAt,value
2018-06-10T00:02:17.607Z,99.90
2018-06-10T00:04:45.772Z,99.90
2018-06-10T00:07:13.985Z,99.90
2018-06-10T00:09:42.169Z,99.90
2018-06-10T00:12:10.332Z,99.90
2018-06-10T00:14:39.503Z,99.90
2018-06-10T00:17:07.908Z,99.90
2018-06-10T00:19:36.085Z,99.90
2018-06-10T00:22:04.228Z,99.90
2018-06-10T00:24:32.419Z,99.90
2018-06-10T00:29:28.546Z,99.90
2018-06-10T00:31:56.724Z,99.90
2018-06-10T00:34:24.899Z,99.90
2018-06-10T00:36:53.057Z,99.90
2018-06-10T00:39:21.248Z,99.90
2018-06-10T00:41:49.765Z,99.90
2018-06-10T00:44:17.934Z,99.90
2018-06-10T00:46:46.084Z,99.90
2018-06-10T00:49:14.552Z,99.90
2018-06-10T00:51:42.712Z,99.90
2018-06-10T00:54:10.875Z,99.90
2018-06-10T00:56:50.946Z,99.90
2018-06-10T00:59:19.141Z,99.90
2018-06-10T01:01:47.305Z,99.90
2018-06-10T01:04:15.550Z,99.90
2018-06-10T01:06:43.701Z,99.90
2018-06-10T01:09:11.988Z,99.90
2018-06-10T01:11:40.345Z,99.90
2018-06-10T01:14:08.868Z,99.90
2018-06-10T01:16:37.074Z,99.90
2018-06-10T01:19:05.256Z,99.90
2018-06-10T01:24:01.391Z,99.90
2018-06-10T01:26:34.862Z,99.90
2018-06-10T01:29:03.013Z,99.90
2018-06-10T01:31:31.189Z,99.90
2018-06-10T01:33:59.381Z,99.90
2018-06-10T01:36:27.549Z,99.90
2018-06-10T01:38:55.741Z,99.90
2018-06-10T01:41:23.945Z,99.90
2018-06-10T01:43:52.317Z,99.90
2018-06-10T01:46:20.470Z,99.90
2018-06-10T01:48:48.655Z,99.90
2018-06-10T01:51:16.820Z,99.90
2018-06-10T01:53:45.003Z,99.90
2018-06-10T01:56:13.180Z,99.90
2018-06-10T01:58:41.373Z,99.90
2018-06-10T02:01:09.540Z,99.90
2018-06-10T02:03:37.699Z,99.90
2018-06-10T02:06:05.900Z,99.90
2018-06-10T02:08:34.092Z,99.90
2018-06-10T02:11:02.245Z,99.90
2018-06-10T02:13:30.425Z,99.90
2018-06-10T02:15:59.978Z,99.90
2018-06-10T02:18:28.179Z,99.90
2018-06-10T02:20:56.371Z,99.90
2018-06-10T02:23:24.535Z,99.90
2018-06-10T02:25:52.745Z,99.90
2018-06-10T02:28:20.908Z,99.90
2018-06-10T02:30:49.167Z,99.90
2018-06-10T02:33:17.373Z,99.90
2018-06-10T02:35:45.830Z,99.90
2018-06-10T02:38:14.001Z,99.90
2018-06-10T02:40:42.176Z,99.90
2018-06-10T02:43:10.348Z,99.90
2018-06-10T02:45:38.509Z,99.90
2018-06-10T02:48:06.672Z,99.90
2018-06-10T02:50:34.858Z,99.90
2018-06-10T02:53:03.032Z,99.90
2018-06-10T02:55:31.235Z,99.90
2018-06-10T02:57:59.436Z,99.90
2018-06-10T03:00:27.623Z,99.90
2018-06-10T03:02:55.789Z,99.90
2018-06-10T03:05:24.007Z,99.90
2018-06-10T03:07:52.195Z,99.90
2018-06-10T03:10:20.363Z,99.90
2018-06-10T03:12:48.517Z,99.90
2018-06-10T03:15:16.682Z,99.90
2018-06-10T03:17:44.852Z,99.90
2018-06-10T03:20:13.030Z,99.90
2018-06-10T03:22:41.193Z,99.90
2018-06-10T03:25:09.406Z,99.90
2018-06-10T03:27:37.590Z,99.90
2018-06-10T03:30:05.857Z,99.90
2018-06-10T03:32:34.040Z,99.90
2018-06-10T03:35:02.255Z,99.90
2018-06-10T03:37:30.434Z,99.90
2018-06-10T03:39:58.747Z,99.90
2018-06-10T03:42:26.920Z,99.90
2018-06-10T03:44:55.081Z,99.90
2018-06-10T03:47:23.262Z,99.90
2018-06-10T03:49:51.431Z,99.90
2018-06-10T03:52:19.615Z,99.90
2018-06-10T03:54:47.793Z,99.90
2018-06-10T03:57:15.972Z,99.90
2018-06-10T03:59:44.232Z,99.90
2018-06-10T04:02:12.394Z,99.90
2018-06-10T04:04:40.569Z,99.90
2018-06-10T04:07:08.779Z,99.90
2018-06-10T04:09:37.005Z,99.90
2018-06-10T04:12:05.195Z,99.90
2018-06-10T04:14:33.361Z,99.90
2018-06-10T04:17:01.533Z,99.90
2018-06-10T04:19:29.700Z,99.90
2018-06-10T04:21:58.204Z,99.90
2018-06-10T04:24:26.393Z,99.90
2018-06-10T04:26:54.583Z,99.90
2018-06-10T04:29:23.021Z,99.90
2018-06-10T04:31:51.191Z,99.90
2018-06-10T04:34:19.377Z,99.90
2018-06-10T04:36:47.630Z,99.90
2018-06-10T04:39:15.850Z,99.90
2018-06-10T04:41:44.015Z,99.90
2018-06-10T04:44:12.233Z,99.90
2018-06-10T04:46:40.435Z,99.90
2018-06-10T04:49:08.737Z,99.90
2018-06-10T04:51:36.954Z,99.90
2018-06-10T04:54:05.112Z,99.90
2018-06-10T04:56:33.312Z,99.90
2018-06-10T04:59:01.501Z,99.90
2018-06-10T05:01:29.702Z,99.90
2018-06-10T05:03:57.858Z,99.90
2018-06-10T05:06:26.040Z,99.70
2018-06-10T05:08:54.200Z,99.50
2018-06-10T05:11:22.381Z,99.40
2018-06-10T05:13:50.968Z,99.40
2018-06-10T05:16:19.120Z,99.20
2018-06-10T05:18:47.276Z,99.10
2018-06-10T05:21:15.512Z,98.80
2018-06-10T05:23:43.820Z,98.80
2018-06-10T05:26:11.993Z,98.70
2018-06-10T05:28:40.252Z,98.60
2018-06-10T05:31:08.437Z,98.50
2018-06-10T05:33:36.630Z,98.50
2018-06-10T05:36:04.969Z,98.30
2018-06-10T05:38:33.157Z,97.70
2018-06-10T05:41:01.357Z,97.30
2018-06-10T05:43:29.573Z,97.10
2018-06-10T05:45:57.729Z,97.00
2018-06-10T05:48:25.905Z,96.60
2018-06-10T05:50:54.256Z,96.60
2018-06-10T05:53:22.540Z,96.40
2018-06-10T05:58:19.052Z,96.10
2018-06-10T06:00:47.479Z,96.00
2018-06-10T06:03:15.637Z,95.20
2018-06-10T06:05:44.157Z,95.00
2018-06-10T06:08:12.360Z,95.20
2018-06-10T06:10:40.567Z,95.20
2018-06-10T06:13:09.092Z,94.80
2018-06-10T06:15:37.270Z,94.90
2018-06-10T06:18:05.692Z,94.60
2018-06-10T06:20:33.833Z,94.40
2018-06-10T06:23:02.021Z,94.20
2018-06-10T06:25:30.228Z,94.10
2018-06-10T06:27:58.384Z,93.60
2018-06-10T06:30:26.652Z,93.70
2018-06-10T06:32:54.890Z,93.40
2018-06-10T06:35:23.049Z,93.40
2018-06-10T06:37:52.348Z,92.80
2018-06-10T06:40:20.543Z,92.80
2018-06-10T06:42:48.768Z,92.30
2018-06-10T06:45:16.932Z,92.00
2018-06-10T06:47:45.101Z,91.60
2018-06-10T06:50:13.294Z,91.00
2018-06-10T06:52:41.473Z,88.70
2018-06-10T06:55:09.654Z,85.70
2018-06-10T06:57:37.822Z,82.80
2018-06-10T07:00:05.972Z,81.50
2018-06-10T07:02:34.147Z,78.60
2018-06-10T07:05:02.321Z,76.10
2018-06-10T07:07:30.600Z,75.30
2018-06-10T07:09:58.761Z,74.80
2018-06-10T07:12:26.929Z,72.50
2018-06-10T07:14:55.787Z,70.10
2018-06-10T07:17:23.944Z,69.40
2018-06-10T07:19:52.304Z,67.90
2018-06-10T07:22:20.461Z,67.70
2018-06-10T07:24:54.944Z,66.50
2018-06-10T07:27:24.309Z,65.60
2018-06-10T07:29:52.474Z,63.20
2018-06-10T07:32:20.700Z,63.40
2018-06-10T07:34:48.875Z,63.80
2018-06-10T07:37:17.042Z,62.00
2018-06-10T07:39:45.225Z,61.80
2018-06-10T07:42:13.495Z,60.10
2018-06-10T07:44:41.704Z,59.60
2018-06-10T07:47:09.940Z,59.50
2018-06-10T07:49:38.150Z,59.40
2018-06-10T07:52:06.334Z,59.30
2018-06-10T07:54:34.482Z,59.20
2018-06-10T07:57:02.664Z,58.70
2018-06-10T07:59:30.830Z,57.60
2018-06-10T08:01:59.022Z,57.10
2018-06-10T08:04:27.233Z,58.00
2018-06-10T08:06:55.414Z,57.00
2018-06-10T08:09:23.653Z,56.40
2018-06-10T08:11:51.851Z,56.70
2018-06-10T08:14:20.031Z,57.20
2018-06-10T08:16:48.184Z,56.50
2018-06-10T08:19:16.383Z,56.10
2018-06-10T08:21:44.589Z,57.40
2018-06-10T08:24:12.744Z,56.50
2018-06-10T08:26:40.934Z,54.80
2018-06-10T08:29:09.071Z,53.90
2018-06-10T08:31:37.230Z,53.70
2018-06-10T08:34:05.440Z,53.60
2018-06-10T08:36:33.662Z,54.00
2018-06-10T08:39:01.821Z,53.90
2018-06-10T08:41:29.995Z,53.60
2018-06-10T08:43:58.309Z,53.20
2018-06-10T08:46:26.429Z,54.10
2018-06-10T08:51:22.587Z,52.80
2018-06-10T08:53:50.764Z,51.90
2018-06-10T08:56:18.950Z,53.50
2018-06-10T08:58:47.145Z,52.50
2018-06-10T09:01:15.336Z,51.30
2018-06-10T09:03:43.506Z,50.10
2018-06-10T09:06:11.662Z,50.70
2018-06-10T09:08:40.039Z,49.60
2018-06-10T09:11:08.181Z,49.90
2018-06-10T09:13:36.377Z,50.50
2018-06-10T09:16:04.536Z,50.30
2018-06-10T09:18:32.758Z,49.10
2018-06-10T09:21:00.945Z,48.90
2018-06-10T09:23:29.237Z,47.90
2018-06-10T09:25:57.547Z,47.90
2018-06-10T09:28:25.833Z,45.20
2018-06-10T09:30:54.191Z,44.60
2018-06-10T09:33:22.347Z,46.90
2018-06-10T09:35:50.787Z,46.20
2018-06-10T09:38:19.000Z,45.90
2018-06-10T09:40:47.428Z,46.10
2018-06-10T09:43:15.619Z,46.50
2018-06-10T09:45:43.836Z,45.00
2018-06-10T09:48:12.097Z,46.50
2018-06-10T09:50:40.240Z,44.00
2018-06-10T09:53:08.457Z,43.40
2018-06-10T09:55:36.949Z,42.60
2018-06-10T09:58:04.908Z,44.40
2018-06-10T10:00:33.052Z,45.40
2018-06-10T10:03:01.323Z,43.90
2018-06-10T10:05:29.574Z,43.40
2018-06-10T10:07:57.806Z,43.20
2018-06-10T10:10:26.006Z,42.90
2018-06-10T10:12:54.195Z,42.20
2018-06-10T10:15:22.359Z,41.40
2018-06-10T10:17:51.275Z,41.70
2018-06-10T10:20:19.542Z,40.00
2018-06-10T10:22:47.790Z,41.50
2018-06-10T10:25:15.975Z,41.60
2018-06-10T10:27:44.153Z,40.00
2018-06-10T10:30:12.317Z,38.40
2018-06-10T10:32:40.737Z,37.70
2018-06-10T10:35:08.896Z,38.20
2018-06-10T10:37:37.072Z,39.20
2018-06-10T10:40:05.232Z,38.40
2018-06-10T10:42:33.393Z,37.00
2018-06-10T10:45:01.578Z,37.90
2018-06-10T10:47:29.744Z,38.80
2018-06-10T10:49:58.012Z,38.40
2018-06-10T10:52:27.216Z,37.80
2018-06-10T10:54:55.393Z,36.30
2018-06-10T10:57:23.566Z,35.90
2018-06-10T10:59:51.728Z,36.60
2018-06-10T11:02:20.104Z,36.40
2018-06-10T11:04:48.260Z,36.90
2018-06-10T11:07:16.433Z,37.60
2018-06-10T11:09:44.776Z,39.60
2018-06-10T11:12:12.925Z,37.60
2018-06-10T11:14:41.099Z,37.60
2018-06-10T11:17:09.263Z,38.10
2018-06-10T11:19:37.413Z,36.70
2018-06-10T11:22:05.571Z,38.10
2018-06-10T11:24:33.857Z,37.90
2018-06-10T11:27:02.040Z,39.90
2018-06-10T11:29:30.190Z,40.10
2018-06-10T11:31:58.372Z,40.70
2018-06-10T11:34:26.981Z,39.20
2018-06-10T11:36:55.125Z,40.00
2018-06-10T11:39:23.272Z,41.30
2018-06-10T11:41:51.427Z,43.00
2018-06-10T11:44:19.611Z,43.10
2018-06-10T11:46:47.753Z,44.30
2018-06-10T11:49:15.905Z,43.70
2018-06-10T11:51:44.124Z,42.90
2018-06-10T11:54:12.268Z,42.10
2018-06-10T11:56:40.617Z,40.00
2018-06-10T11:59:08.772Z,40.10
2018-06-10T12:01:36.929Z,39.30
2018-06-10T12:04:05.126Z,38.10
2018-06-10T12:06:33.267Z,38.40
2018-06-10T12:09:01.433Z,37.20
2018-06-10T12:11:29.567Z,36.00
2018-06-10T12:13:57.749Z,35.90
2018-06-10T12:16:25.941Z,35.40
2018-06-10T12:18:59.676Z,35.90
2018-06-10T12:21:27.997Z,37.80
2018-06-10T12:23:56.265Z,37.00
2018-06-10T12:26:24.449Z,36.50
2018-06-10T12:28:52.969Z,36.70
2018-06-10T12:31:21.196Z,37.10
2018-06-10T12:33:49.418Z,40.00
2018-06-10T12:36:17.560Z,39.60
2018-06-10T12:41:13.856Z,38.50
2018-06-10T12:43:42.006Z,40.20
2018-06-10T12:46:11.960Z,38.80
2018-06-10T12:48:40.153Z,38.70
2018-06-10T12:51:08.336Z,37.30
2018-06-10T12:53:36.505Z,37.60
2018-06-10T12:56:04.691Z,38.30
2018-06-10T12:58:32.981Z,38.40
2018-06-10T13:01:01.173Z,39.00
2018-06-10T13:03:29.327Z,37.60
2018-06-10T13:05:57.564Z,37.50
2018-06-10T13:08:25.725Z,39.70
2018-06-10T13:10:53.879Z,40.90
2018-06-10T13:13:22.048Z,42.00
2018-06-10T13:15:50.196Z,42.80
2018-06-10T13:18:18.458Z,43.00
2018-06-10T13:20:46.608Z,42.20
2018-06-10T13:23:14.766Z,42.60
2018-06-10T13:25:43.289Z,42.10
2018-06-10T13:28:13.096Z,40.80
2018-06-10T13:30:41.392Z,39.70
2018-06-10T13:33:09.554Z,38.90
2018-06-10T13:35:37.699Z,39.60
2018-06-10T13:38:05.880Z,39.70
2018-06-10T13:40:34.074Z,41.30
2018-06-10T13:43:02.231Z,43.50
2018-06-10T13:45:30.402Z,43.50
2018-06-10T13:47:58.563Z,44.40
2018-06-10T13:50:26.972Z,44.50
2018-06-10T13:52:55.140Z,43.50
2018-06-10T13:55:23.312Z,42.10
2018-06-10T13:57:51.563Z,40.90
2018-06-10T14:00:19.813Z,41.50
2018-06-10T14:02:48.080Z,40.30
2018-06-10T14:05:16.544Z,40.40
2018-06-10T14:10:12.957Z,39.20
2018-06-10T14:12:41.396Z,39.40
2018-06-10T14:15:09.648Z,39.70
2018-06-10T14:17:37.885Z,40.20
2018-06-10T14:20:06.080Z,41.50
2018-06-10T14:25:02.779Z,42.60
2018-06-10T14:27:31.079Z,43.50
2018-06-10T14:29:59.273Z,43.50
2018-06-10T14:32:27.445Z,44.10
2018-06-10T14:34:55.615Z,44.30
2018-06-10T14:37:23.772Z,45.00
2018-06-10T14:39:51.935Z,45.60
2018-06-10T14:42:20.109Z,47.50
2018-06-10T14:44:48.277Z,52.50
2018-06-10T14:47:16.463Z,56.70
2018-06-10T14:49:44.621Z,60.70
2018-06-10T14:52:12.794Z,66.30
2018-06-10T14:54:40.962Z,70.80
2018-06-10T14:57:09.133Z,75.20
2018-06-10T14:59:37.316Z,77.40
2018-06-10T15:02:05.552Z,78.40
2018-06-10T15:04:33.709Z,79.20
2018-06-10T15:07:02.099Z,80.60
2018-06-10T15:09:30.248Z,81.80
2018-06-10T15:11:58.509Z,75.70
2018-06-10T15:16:55.210Z,67.20
2018-06-10T15:19:23.367Z,66.80
2018-06-10T15:21:51.536Z,64.90
2018-06-10T15:24:19.820Z,65.40
2018-06-10T15:26:47.989Z,65.90
2018-06-10T15:29:16.138Z,64.20
2018-06-10T15:31:44.292Z,61.90
2018-06-10T15:34:12.489Z,63.20
2018-06-10T15:36:40.636Z,62.30
2018-06-10T15:39:09.033Z,64.30
2018-06-10T15:41:37.203Z,58.60
2018-06-10T15:44:05.596Z,63.20
2018-06-10T15:46:33.789Z,61.00
2018-06-10T15:49:01.931Z,59.80
2018-06-10T15:51:30.441Z,61.20
2018-06-10T15:53:58.589Z,60.90
2018-06-10T15:56:26.760Z,60.60
2018-06-10T16:01:22.933Z,64.70
2018-06-10T16:03:51.108Z,69.10
2018-06-10T16:06:19.285Z,74.00
2018-06-10T16:08:47.485Z,79.60
2018-06-10T16:11:16.028Z,84.50
2018-06-10T16:13:44.222Z,89.70
2018-06-10T16:16:12.368Z,90.90
2018-06-10T16:18:40.574Z,90.00
2018-06-10T16:21:08.744Z,86.80
2018-06-10T16:23:36.909Z,79.10
2018-06-10T16:26:05.053Z,76.80
2018-06-10T16:28:33.248Z,73.70
2018-06-10T16:31:01.398Z,70.80
2018-06-10T16:33:29.582Z,69.20
2018-06-10T16:35:57.793Z,68.00
2018-06-10T16:38:26.027Z,70.00
2018-06-10T16:40:54.164Z,71.60
2018-06-10T16:43:22.304Z,73.50
2018-06-10T16:45:50.825Z,77.50
2018-06-10T16:48:19.029Z,77.20
2018-06-10T16:50:47.194Z,75.40
2018-06-10T16:53:15.407Z,74.70
2018-06-10T16:55:43.615Z,71.50
2018-06-10T16:58:11.867Z,73.00
2018-06-10T17:00:40.052Z,75.00
2018-06-10T17:03:08.187Z,76.00
2018-06-10T17:05:36.412Z,75.10
2018-06-10T17:08:04.569Z,69.80
2018-06-10T17:10:32.717Z,67.20
2018-06-10T17:13:00.883Z,63.80
2018-06-10T17:15:29.092Z,64.30
2018-06-10T17:17:57.227Z,66.50
2018-06-10T17:21:54.718Z,67.80
2018-06-10T17:24:22.883Z,71.10
2018-06-10T17:26:51.075Z,76.70
2018-06-10T17:29:19.305Z,79.50
2018-06-10T17:31:47.488Z,82.10
2018-06-10T17:34:15.632Z,83.60
2018-06-10T17:36:43.804Z,85.40
2018-06-10T17:41:39.909Z,88.20
2018-06-10T17:44:08.085Z,88.70
2018-06-10T17:46:36.229Z,90.00
2018-06-10T17:49:04.462Z,88.90
2018-06-10T17:51:32.615Z,90.50
2018-06-10T17:54:00.792Z,90.70
2018-06-10T17:56:28.925Z,91.40
2018-06-10T17:58:57.085Z,90.70
2018-06-10T18:01:25.258Z,90.40
2018-06-10T18:03:53.409Z,90.40
2018-06-10T18:06:21.614Z,90.80
2018-06-10T18:08:49.705Z,91.60
2018-06-10T18:11:17.874Z,91.50
2018-06-10T18:13:46.219Z,91.80
2018-06-10T18:16:14.411Z,92.10
2018-06-10T18:18:42.554Z,92.50
2018-06-10T18:21:10.736Z,93.30
2018-06-10T18:23:38.989Z,93.50
2018-06-10T18:26:07.130Z,94.00
2018-06-10T18:28:35.287Z,94.40
2018-06-10T18:31:03.521Z,94.60
2018-06-10T18:33:31.966Z,95.00
2018-06-10T18:38:28.198Z,95.10
2018-06-10T18:43:24.285Z,95.30
2018-06-10T18:45:52.472Z,95.50
2018-06-10T18:48:20.617Z,95.70
2018-06-10T18:50:48.796Z,96.00
2018-06-10T18:53:16.979Z,96.40
2018-06-10T18:55:45.310Z,96.50
2018-06-10T18:58:13.493Z,96.30
2018-06-10T19:00:41.641Z,96.60
2018-06-10T19:03:09.849Z,97.00
2018-06-10T19:05:38.128Z,97.30
2018-06-10T19:08:06.276Z,97.80
2018-06-10T19:10:34.488Z,98.20
2018-06-10T19:13:02.707Z,98.40
2018-06-10T19:15:30.980Z,98.70
2018-06-10T19:17:59.154Z,98.80
2018-06-10T19:20:27.302Z,98.90
2018-06-10T19:22:56.604Z,99.00
2018-06-10T19:25:24.875Z,99.10
2018-06-10T19:27:53.136Z,99.20
2018-06-10T19:30:21.308Z,99.50
2018-06-10T19:32:49.530Z,99.90
2018-06-10T19:35:18.058Z,99.90
2018-06-10T19:37:46.254Z,99.90
2018-06-10T19:40:14.422Z,99.90
2018-06-10T19:42:42.619Z,99.90
2018-06-10T19:45:10.797Z,99.90
2018-06-10T19:47:38.995Z,99.90
2018-06-10T19:50:07.254Z,99.90
2018-06-10T19:52:35.519Z,99.90
2018-06-10T19:55:03.771Z,99.90
2018-06-10T19:59:59.918Z,99.90
2018-06-10T20:02:28.113Z,99.90
2018-06-10T20:04:56.376Z,99.90
2018-06-10T20:07:24.556Z,99.90
2018-06-10T20:09:52.727Z,99.90
2018-06-10T20:12:20.968Z,99.90
2018-06-10T20:14:49.146Z,99.90
2018-06-10T20:19:45.972Z,99.90
2018-06-10T20:22:14.177Z,99.90
2018-06-10T20:24:42.461Z,99.90
2018-06-10T20:27:10.660Z,99.90
2018-06-10T20:29:38.881Z,99.90
2018-06-10T20:32:07.077Z,99.90
2018-06-10T20:34:35.259Z,99.90
2018-06-10T20:37:03.436Z,99.90
2018-06-10T20:39:31.708Z,99.90
2018-06-10T20:41:59.977Z,99.90
2018-06-10T20:44:28.173Z,99.90
2018-06-10T20:46:56.434Z,99.90
2018-06-10T20:49:25.032Z,99.90
2018-06-10T20:51:53.313Z,99.90
2018-06-10T20:54:21.749Z,99.90
2018-06-10T20:56:50.040Z,99.90
2018-06-10T20:59:18.190Z,99.90
2018-06-10T21:01:46.395Z,99.90
2018-06-10T21:04:14.624Z,99.90
2018-06-10T21:06:42.780Z,99.90
2018-06-10T21:09:11.046Z,99.90
2018-06-10T21:11:40.091Z,99.90
2018-06-10T21:14:08.237Z,99.90
2018-06-10T21:16:36.393Z,99.90
2018-06-10T21:21:32.584Z,99.90
2018-06-10T21:24:00.785Z,99.90
2018-06-10T21:26:28.953Z,99.90
2018-06-10T21:28:57.152Z,99.90
2018-06-10T21:31:25.312Z,99.90
2018-06-10T21:33:53.456Z,99.90
2018-06-10T21:36:21.618Z,99.90
2018-06-10T21:38:49.771Z,99.90
2018-06-10T21:41:17.912Z,99.90
2018-06-10T21:43:46.072Z,99.90
2018-06-10T21:46:14.247Z,99.90
2018-06-10T21:48:42.389Z,99.90
2018-06-10T21:51:10.572Z,99.90
2018-06-10T21:53:38.776Z,99.90
2018-06-10T21:56:06.934Z,99.90
2018-06-10T21:58:35.116Z,99.90
2018-06-10T22:01:03.277Z,99.90
2018-06-10T22:03:31.428Z,99.90
2018-06-10T22:05:59.766Z,99.90
2018-06-10T22:08:27.965Z,99.90
2018-06-10T22:10:56.450Z,99.90
2018-06-10T22:13:24.664Z,99.90
2018-06-10T22:15:52.832Z,99.90
2018-06-10T22:18:21.050Z,99.90
2018-06-10T22:20:49.224Z,99.90
2018-06-10T22:23:17.380Z,99.90
2018-06-10T22:25:45.785Z,99.90
2018-06-10T22:28:13.942Z,99.90
2018-06-10T22:30:42.169Z,99.90
2018-06-10T22:33:10.324Z,99.90
2018-06-10T22:35:38.485Z,99.90
2018-06-10T22:38:06.672Z,99.90
2018-06-10T22:40:34.832Z,99.90
2018-06-10T22:43:02.993Z,99.90
2018-06-10T22:45:31.240Z,99.90
2018-06-10T22:47:59.394Z,99.90
2018-06-10T22:50:27.552Z,99.90
2018-06-10T22:53:20.791Z,99.90
2018-06-10T22:55:48.964Z,99.90
2018-06-10T22:58:17.140Z,99.90
2018-06-10T23:00:45.319Z,99.90
2018-06-10T23:03:13.528Z,99.90
2018-06-10T23:05:41.695Z,99.90
2018-06-10T23:08:09.855Z,99.90
2018-06-10T23:10:38.047Z,99.90
2018-06-10T23:13:06.479Z,99.90
2018-06-10T23:18:02.561Z,99.90
2018-06-10T23:20:30.881Z,99.90
2018-06-10T23:25:27.017Z,99.90
2018-06-10T23:27:55.199Z,99.90
2018-06-10T23:30:23.389Z,99.90
2018-06-10T23:32:51.557Z,99.90
2018-06-10T23:35:19.720Z,99.90
2018-06-10T23:37:47.992Z,99.90
2018-06-10T23:42:44.084Z,99.90
2018-06-10T23:45:12.354Z,99.90
2018-06-10T23:47:40.570Z,99.90
2018-06-10T23:50:08.744Z,99.90
2018-06-10T23:52:36.941Z,99.90
2018-06-10T23:55:05.124Z,99.90
2018-06-10T23:57:33.360Z,99.90
